sensor_id;sensor_type;location;lat;lon;timestamp;P1;durP1;ratioP1;P2;durP2;ratioP2
52318;SDS011;38258;51.148;14.068;2022-08-19T00:01:20;16.70;;;10.48;;
52318;SDS011;38258;51.148;14.068;2022-08-19T00:03:47;15.30;;;9.88;;
52318;SDS011;38258;51.148;14.068;2022-08-19T00:06:14;17.08;;;10.27;;
52318;SDS011;38258;51.148;14.068;2022-08-19T00:08:42;14.80;;;9.93;;
52318;SDS011;38258;51.148;14.068;2022-08-19T00:11:11;15.93;;;10.18;;
52318;SDS011;38258;51.148;14.068;2022-08-19T00:13:38;14.05;;;9.30;;
52318;SDS011;38258;51.148;14.068;2022-08-19T00:16:05;14.07;;;9.30;;
52318;SDS011;38258;51.148;14.068;2022-08-19T00:18:33;12.57;;;9.30;;
52318;SDS011;38258;51.148;14.068;2022-08-19T00:21:00;13.13;;;9.35;;
52318;SDS011;38258;51.148;14.068;2022-08-19T00:23:27;15.25;;;10.30;;
52318;SDS011;38258;51.148;14.068;2022-08-19T00:25:54;15.45;;;9.68;;
52318;SDS011;38258;51.148;14.068;2022-08-19T00:28:22;15.30;;;10.38;;
52318;SDS011;38258;51.148;14.068;2022-08-19T00:30:49;16.77;;;10.18;;
52318;SDS011;38258;51.148;14.068;2022-08-19T00:33:17;14.80;;;10.15;;
52318;SDS011;38258;51.148;14.068;2022-08-19T00:35:43;14.35;;;10.20;;
52318;SDS011;38258;51.148;14.068;2022-08-19T00:38:10;15.82;;;9.43;;
52318;SDS011;38258;51.148;14.068;2022-08-19T00:40:37;14.85;;;9.77;;
52318;SDS011;38258;51.148;14.068;2022-08-19T00:43:07;14.77;;;9.80;;
52318;SDS011;38258;51.148;14.068;2022-08-19T00:45:36;17.38;;;10.25;;
52318;SDS011;38258;51.148;14.068;2022-08-19T00:48:03;16.42;;;10.50;;
52318;SDS011;38258;51.148;14.068;2022-08-19T00:50:30;15.70;;;9.73;;
52318;SDS011;38258;51.148;14.068;2022-08-19T00:52:57;14.27;;;9.60;;
52318;SDS011;38258;51.148;14.068;2022-08-19T00:55:25;14.95;;;10.10;;
52318;SDS011;38258;51.148;14.068;2022-08-19T00:57:55;15.60;;;10.02;;
52318;SDS011;38258;51.148;14.068;2022-08-19T01:00:25;15.50;;;10.20;;
52318;SDS011;38258;51.148;14.068;2022-08-19T01:02:54;16.52;;;10.80;;
52318;SDS011;38258;51.148;14.068;2022-08-19T01:05:22;16.05;;;10.20;;
52318;SDS011;38258;51.148;14.068;2022-08-19T01:07:52;14.77;;;10.85;;
52318;SDS011;38258;51.148;14.068;2022-08-19T01:10:21;16.55;;;10.43;;
52318;SDS011;38258;51.148;14.068;2022-08-19T01:12:51;15.23;;;10.30;;
52318;SDS011;38258;51.148;14.068;2022-08-19T01:15:19;14.02;;;10.07;;
52318;SDS011;38258;51.148;14.068;2022-08-19T01:17:49;15.77;;;11.18;;
52318;SDS011;38258;51.148;14.068;2022-08-19T01:20:19;15.00;;;10.63;;
52318;SDS011;38258;51.148;14.068;2022-08-19T01:22:50;16.33;;;10.32;;
52318;SDS011;38258;51.148;14.068;2022-08-19T01:25:19;16.55;;;10.82;;
52318;SDS011;38258;51.148;14.068;2022-08-19T01:27:49;17.25;;;11.30;;
52318;SDS011;38258;51.148;14.068;2022-08-19T01:30:17;17.40;;;10.90;;
52318;SDS011;38258;51.148;14.068;2022-08-19T01:32:46;17.20;;;11.60;;
52318;SDS011;38258;51.148;14.068;2022-08-19T01:35:14;17.40;;;11.88;;
52318;SDS011;38258;51.148;14.068;2022-08-19T01:37:44;17.58;;;11.50;;
52318;SDS011;38258;51.148;14.068;2022-08-19T01:40:14;20.25;;;12.10;;
52318;SDS011;38258;51.148;14.068;2022-08-19T01:42:41;17.33;;;11.75;;
52318;SDS011;38258;51.148;14.068;2022-08-19T01:45:08;18.83;;;10.90;;
52318;SDS011;38258;51.148;14.068;2022-08-19T01:47:36;16.42;;;11.32;;
52318;SDS011;38258;51.148;14.068;2022-08-19T01:50:03;18.08;;;11.57;;
52318;SDS011;38258;51.148;14.068;2022-08-19T01:52:34;20.52;;;12.68;;
52318;SDS011;38258;51.148;14.068;2022-08-19T01:55:01;17.20;;;11.93;;
52318;SDS011;38258;51.148;14.068;2022-08-19T01:57:29;19.00;;;11.93;;
52318;SDS011;38258;51.148;14.068;2022-08-19T01:59:56;16.67;;;11.55;;
52318;SDS011;38258;51.148;14.068;2022-08-19T02:02:23;20.88;;;12.32;;
52318;SDS011;38258;51.148;14.068;2022-08-19T02:04:50;19.80;;;12.88;;
52318;SDS011;38258;51.148;14.068;2022-08-19T02:07:18;18.50;;;12.15;;
52318;SDS011;38258;51.148;14.068;2022-08-19T02:09:46;17.77;;;11.60;;
52318;SDS011;38258;51.148;14.068;2022-08-19T02:12:14;20.30;;;12.52;;
52318;SDS011;38258;51.148;14.068;2022-08-19T02:14:42;19.58;;;12.90;;
52318;SDS011;38258;51.148;14.068;2022-08-19T02:17:09;18.08;;;12.73;;
52318;SDS011;38258;51.148;14.068;2022-08-19T02:19:36;17.00;;;11.32;;
52318;SDS011;38258;51.148;14.068;2022-08-19T02:22:03;17.80;;;12.45;;
52318;SDS011;38258;51.148;14.068;2022-08-19T02:24:30;18.73;;;12.65;;
52318;SDS011;38258;51.148;14.068;2022-08-19T02:26:57;18.48;;;10.63;;
52318;SDS011;38258;51.148;14.068;2022-08-19T02:29:24;21.63;;;12.18;;
52318;SDS011;38258;51.148;14.068;2022-08-19T02:31:52;22.48;;;13.73;;
52318;SDS011;38258;51.148;14.068;2022-08-19T02:34:19;19.70;;;12.82;;
52318;SDS011;38258;51.148;14.068;2022-08-19T02:36:45;20.50;;;13.02;;
52318;SDS011;38258;51.148;14.068;2022-08-19T02:39:12;20.10;;;12.73;;
52318;SDS011;38258;51.148;14.068;2022-08-19T02:41:38;21.35;;;13.60;;
52318;SDS011;38258;51.148;14.068;2022-08-19T02:44:06;20.17;;;13.50;;
52318;SDS011;38258;51.148;14.068;2022-08-19T02:46:33;22.85;;;13.82;;
52318;SDS011;38258;51.148;14.068;2022-08-19T02:49:03;21.60;;;13.35;;
52318;SDS011;38258;51.148;14.068;2022-08-19T02:51:34;20.75;;;13.10;;
52318;SDS011;38258;51.148;14.068;2022-08-19T02:54:02;20.38;;;13.38;;
52318;SDS011;38258;51.148;14.068;2022-08-19T02:56:29;20.23;;;13.32;;
52318;SDS011;38258;51.148;14.068;2022-08-19T02:58:57;21.50;;;13.48;;
52318;SDS011;38258;51.148;14.068;2022-08-19T03:01:26;22.00;;;13.80;;
52318;SDS011;38258;51.148;14.068;2022-08-19T03:03:55;20.20;;;13.68;;
52318;SDS011;38258;51.148;14.068;2022-08-19T03:06:23;23.23;;;13.60;;
52318;SDS011;38258;51.148;14.068;2022-08-19T03:08:50;23.27;;;14.32;;
52318;SDS011;38258;51.148;14.068;2022-08-19T03:11:18;22.52;;;13.93;;
52318;SDS011;38258;51.148;14.068;2022-08-19T03:13:47;23.30;;;14.68;;
52318;SDS011;38258;51.148;14.068;2022-08-19T03:16:16;23.80;;;14.40;;
52318;SDS011;38258;51.148;14.068;2022-08-19T03:18:43;23.15;;;14.35;;
52318;SDS011;38258;51.148;14.068;2022-08-19T03:21:14;25.08;;;14.88;;
52318;SDS011;38258;51.148;14.068;2022-08-19T03:23:43;24.13;;;14.77;;
52318;SDS011;38258;51.148;14.068;2022-08-19T03:26:10;25.50;;;14.98;;
52318;SDS011;38258;51.148;14.068;2022-08-19T03:28:37;20.75;;;13.63;;
52318;SDS011;38258;51.148;14.068;2022-08-19T03:31:04;25.00;;;14.95;;
52318;SDS011;38258;51.148;14.068;2022-08-19T03:33:34;24.58;;;14.88;;
52318;SDS011;38258;51.148;14.068;2022-08-19T03:36:05;22.08;;;14.15;;
52318;SDS011;38258;51.148;14.068;2022-08-19T03:38:35;23.13;;;14.77;;
52318;SDS011;38258;51.148;14.068;2022-08-19T03:41:05;24.35;;;14.48;;
52318;SDS011;38258;51.148;14.068;2022-08-19T03:43:34;21.63;;;14.13;;
52318;SDS011;38258;51.148;14.068;2022-08-19T03:46:02;23.70;;;13.63;;
52318;SDS011;38258;51.148;14.068;2022-08-19T03:48:31;22.33;;;14.70;;
52318;SDS011;38258;51.148;14.068;2022-08-19T03:50:58;21.65;;;13.98;;
52318;SDS011;38258;51.148;14.068;2022-08-19T03:53:27;25.60;;;14.68;;
52318;SDS011;38258;51.148;14.068;2022-08-19T03:55:55;25.35;;;14.68;;
52318;SDS011;38258;51.148;14.068;2022-08-19T03:58:24;25.48;;;14.93;;
52318;SDS011;38258;51.148;14.068;2022-08-19T04:00:52;26.80;;;15.23;;
52318;SDS011;38258;51.148;14.068;2022-08-19T04:03:19;24.50;;;14.95;;
52318;SDS011;38258;51.148;14.068;2022-08-19T04:05:46;23.45;;;14.65;;
52318;SDS011;38258;51.148;14.068;2022-08-19T04:08:16;22.98;;;14.65;;
52318;SDS011;38258;51.148;14.068;2022-08-19T04:11:05;26.98;;;15.40;;
52318;SDS011;38258;51.148;14.068;2022-08-19T04:13:35;26.65;;;14.85;;
52318;SDS011;38258;51.148;14.068;2022-08-19T04:16:02;21.02;;;14.75;;
52318;SDS011;38258;51.148;14.068;2022-08-19T04:18:29;23.50;;;14.65;;
52318;SDS011;38258;51.148;14.068;2022-08-19T04:20:56;22.40;;;13.98;;
52318;SDS011;38258;51.148;14.068;2022-08-19T04:23:23;21.95;;;14.30;;
52318;SDS011;38258;51.148;14.068;2022-08-19T04:25:50;22.98;;;13.90;;
52318;SDS011;38258;51.148;14.068;2022-08-19T04:28:17;22.30;;;14.00;;
52318;SDS011;38258;51.148;14.068;2022-08-19T04:30:45;21.90;;;13.77;;
52318;SDS011;38258;51.148;14.068;2022-08-19T04:33:14;23.85;;;14.80;;
52318;SDS011;38258;51.148;14.068;2022-08-19T04:35:42;23.98;;;15.27;;
52318;SDS011;38258;51.148;14.068;2022-08-19T04:38:12;23.10;;;14.60;;
52318;SDS011;38258;51.148;14.068;2022-08-19T04:40:39;22.85;;;14.40;;
52318;SDS011;38258;51.148;14.068;2022-08-19T04:43:24;23.05;;;15.20;;
52318;SDS011;38258;51.148;14.068;2022-08-19T04:45:52;27.88;;;15.40;;
52318;SDS011;38258;51.148;14.068;2022-08-19T04:48:19;25.50;;;15.93;;
52318;SDS011;38258;51.148;14.068;2022-08-19T04:50:51;25.63;;;15.93;;
52318;SDS011;38258;51.148;14.068;2022-08-19T04:53:23;25.63;;;15.38;;
52318;SDS011;38258;51.148;14.068;2022-08-19T04:55:50;25.73;;;15.40;;
52318;SDS011;38258;51.148;14.068;2022-08-19T04:58:17;27.73;;;15.88;;
52318;SDS011;38258;51.148;14.068;2022-08-19T05:00:44;24.92;;;16.48;;
52318;SDS011;38258;51.148;14.068;2022-08-19T05:03:12;26.73;;;16.13;;
52318;SDS011;38258;51.148;14.068;2022-08-19T05:05:42;25.98;;;15.85;;
52318;SDS011;38258;51.148;14.068;2022-08-19T05:08:10;28.05;;;16.08;;
52318;SDS011;38258;51.148;14.068;2022-08-19T05:10:37;27.17;;;16.35;;
52318;SDS011;38258;51.148;14.068;2022-08-19T05:13:05;26.02;;;16.13;;
52318;SDS011;38258;51.148;14.068;2022-08-19T05:15:34;27.70;;;16.25;;
52318;SDS011;38258;51.148;14.068;2022-08-19T05:18:00;29.38;;;16.98;;
52318;SDS011;38258;51.148;14.068;2022-08-19T05:20:46;29.90;;;16.98;;
52318;SDS011;38258;51.148;14.068;2022-08-19T05:23:30;32.63;;;17.38;;
52318;SDS011;38258;51.148;14.068;2022-08-19T05:25:57;29.75;;;16.42;;
52318;SDS011;38258;51.148;14.068;2022-08-19T05:28:24;27.80;;;16.48;;
52318;SDS011;38258;51.148;14.068;2022-08-19T05:30:51;28.48;;;16.85;;
52318;SDS011;38258;51.148;14.068;2022-08-19T05:33:20;27.75;;;16.58;;
52318;SDS011;38258;51.148;14.068;2022-08-19T05:35:50;28.42;;;16.77;;
52318;SDS011;38258;51.148;14.068;2022-08-19T05:38:17;30.10;;;16.95;;
52318;SDS011;38258;51.148;14.068;2022-08-19T05:40:45;27.77;;;17.02;;
52318;SDS011;38258;51.148;14.068;2022-08-19T05:43:13;29.52;;;17.45;;
52318;SDS011;38258;51.148;14.068;2022-08-19T05:45:42;28.85;;;16.35;;
52318;SDS011;38258;51.148;14.068;2022-08-19T05:48:10;29.05;;;16.88;;
52318;SDS011;38258;51.148;14.068;2022-08-19T05:50:38;30.13;;;17.20;;
52318;SDS011;38258;51.148;14.068;2022-08-19T05:53:07;32.47;;;17.23;;
52318;SDS011;38258;51.148;14.068;2022-08-19T05:55:35;31.83;;;18.05;;
52318;SDS011;38258;51.148;14.068;2022-08-19T05:58:03;29.55;;;17.55;;
52318;SDS011;38258;51.148;14.068;2022-08-19T06:00:32;29.98;;;17.70;;
52318;SDS011;38258;51.148;14.068;2022-08-19T06:02:59;30.13;;;17.58;;
52318;SDS011;38258;51.148;14.068;2022-08-19T06:05:28;30.65;;;17.55;;
52318;SDS011;38258;51.148;14.068;2022-08-19T06:07:55;32.38;;;17.35;;
52318;SDS011;38258;51.148;14.068;2022-08-19T06:10:25;29.83;;;17.27;;
52318;SDS011;38258;51.148;14.068;2022-08-19T06:12:52;33.88;;;17.75;;
52318;SDS011;38258;51.148;14.068;2022-08-19T06:15:19;31.13;;;17.70;;
52318;SDS011;38258;51.148;14.068;2022-08-19T06:17:51;30.50;;;16.45;;
52318;SDS011;38258;51.148;14.068;2022-08-19T06:20:18;30.13;;;17.60;;
52318;SDS011;38258;51.148;14.068;2022-08-19T06:22:47;31.02;;;18.35;;
52318;SDS011;38258;51.148;14.068;2022-08-19T06:25:16;31.83;;;17.05;;
52318;SDS011;38258;51.148;14.068;2022-08-19T06:27:45;30.02;;;15.98;;
52318;SDS011;38258;51.148;14.068;2022-08-19T06:30:12;31.85;;;16.48;;
52318;SDS011;38258;51.148;14.068;2022-08-19T06:32:40;30.67;;;15.95;;
52318;SDS011;38258;51.148;14.068;2022-08-19T06:35:07;29.75;;;16.63;;
52318;SDS011;38258;51.148;14.068;2022-08-19T06:37:34;30.40;;;16.55;;
52318;SDS011;38258;51.148;14.068;2022-08-19T06:40:02;27.83;;;15.52;;
52318;SDS011;38258;51.148;14.068;2022-08-19T06:42:29;29.88;;;16.65;;
52318;SDS011;38258;51.148;14.068;2022-08-19T06:44:57;28.15;;;15.93;;
52318;SDS011;38258;51.148;14.068;2022-08-19T06:47:27;30.33;;;17.10;;
52318;SDS011;38258;51.148;14.068;2022-08-19T06:49:54;26.50;;;14.20;;
52318;SDS011;38258;51.148;14.068;2022-08-19T06:52:24;20.95;;;11.77;;
52318;SDS011;38258;51.148;14.068;2022-08-19T06:54:50;27.23;;;15.05;;
52318;SDS011;38258;51.148;14.068;2022-08-19T06:57:17;26.35;;;14.63;;
52318;SDS011;38258;51.148;14.068;2022-08-19T06:59:44;23.58;;;13.65;;
52318;SDS011;38258;51.148;14.068;2022-08-19T07:02:12;24.27;;;13.35;;
52318;SDS011;38258;51.148;14.068;2022-08-19T07:04:39;21.00;;;13.63;;
52318;SDS011;38258;51.148;14.068;2022-08-19T07:07:07;24.45;;;13.75;;
52318;SDS011;38258;51.148;14.068;2022-08-19T07:09:37;21.77;;;12.32;;
52318;SDS011;38258;51.148;14.068;2022-08-19T07:12:06;21.33;;;12.23;;
52318;SDS011;38258;51.148;14.068;2022-08-19T07:14:35;20.23;;;11.32;;
52318;SDS011;38258;51.148;14.068;2022-08-19T07:17:03;18.33;;;11.82;;
52318;SDS011;38258;51.148;14.068;2022-08-19T07:19:35;17.90;;;10.40;;
52318;SDS011;38258;51.148;14.068;2022-08-19T07:22:03;18.98;;;10.32;;
52318;SDS011;38258;51.148;14.068;2022-08-19T07:24:32;17.77;;;11.45;;
52318;SDS011;38258;51.148;14.068;2022-08-19T07:27:00;18.02;;;10.75;;
52318;SDS011;38258;51.148;14.068;2022-08-19T07:29:29;18.67;;;11.82;;
52318;SDS011;38258;51.148;14.068;2022-08-19T07:31:58;19.55;;;11.70;;
52318;SDS011;38258;51.148;14.068;2022-08-19T07:34:26;22.60;;;12.30;;
52318;SDS011;38258;51.148;14.068;2022-08-19T07:36:55;21.42;;;12.45;;
52318;SDS011;38258;51.148;14.068;2022-08-19T07:39:23;20.02;;;12.07;;
52318;SDS011;38258;51.148;14.068;2022-08-19T07:41:52;20.17;;;12.00;;
52318;SDS011;38258;51.148;14.068;2022-08-19T07:44:19;22.30;;;12.32;;
52318;SDS011;38258;51.148;14.068;2022-08-19T07:46:49;16.77;;;10.95;;
52318;SDS011;38258;51.148;14.068;2022-08-19T07:49:18;19.23;;;11.88;;
52318;SDS011;38258;51.148;14.068;2022-08-19T07:51:47;21.67;;;12.05;;
52318;SDS011;38258;51.148;14.068;2022-08-19T07:54:16;21.58;;;12.02;;
52318;SDS011;38258;51.148;14.068;2022-08-19T07:56:43;21.30;;;12.27;;
52318;SDS011;38258;51.148;14.068;2022-08-19T07:59:10;21.45;;;12.65;;
52318;SDS011;38258;51.148;14.068;2022-08-19T08:01:38;23.05;;;13.18;;
52318;SDS011;38258;51.148;14.068;2022-08-19T08:04:06;18.85;;;11.30;;
52318;SDS011;38258;51.148;14.068;2022-08-19T08:06:51;19.20;;;10.52;;
52318;SDS011;38258;51.148;14.068;2022-08-19T08:09:38;23.48;;;12.50;;
52318;SDS011;38258;51.148;14.068;2022-08-19T08:12:08;19.52;;;11.77;;
52318;SDS011;38258;51.148;14.068;2022-08-19T08:14:37;21.73;;;12.63;;
52318;SDS011;38258;51.148;14.068;2022-08-19T08:17:06;19.63;;;11.70;;
52318;SDS011;38258;51.148;14.068;2022-08-19T08:19:34;21.02;;;12.25;;
52318;SDS011;38258;51.148;14.068;2022-08-19T08:22:01;20.98;;;12.40;;
52318;SDS011;38258;51.148;14.068;2022-08-19T08:24:31;22.23;;;12.18;;
52318;SDS011;38258;51.148;14.068;2022-08-19T08:27:00;20.77;;;11.73;;
52318;SDS011;38258;51.148;14.068;2022-08-19T08:29:28;19.40;;;12.50;;
52318;SDS011;38258;51.148;14.068;2022-08-19T08:31:56;19.35;;;12.45;;
52318;SDS011;38258;51.148;14.068;2022-08-19T08:34:23;21.35;;;12.75;;
52318;SDS011;38258;51.148;14.068;2022-08-19T08:36:50;22.80;;;12.48;;
52318;SDS011;38258;51.148;14.068;2022-08-19T08:39:18;20.40;;;11.45;;
52318;SDS011;38258;51.148;14.068;2022-08-19T08:41:50;20.02;;;11.50;;
52318;SDS011;38258;51.148;14.068;2022-08-19T08:44:26;19.70;;;11.40;;
52318;SDS011;38258;51.148;14.068;2022-08-19T08:47:04;20.30;;;11.55;;
52318;SDS011;38258;51.148;14.068;2022-08-19T08:49:40;21.27;;;11.82;;
52318;SDS011;38258;51.148;14.068;2022-08-19T08:52:18;19.88;;;11.32;;
52318;SDS011;38258;51.148;14.068;2022-08-19T08:54:48;19.25;;;10.98;;
52318;SDS011;38258;51.148;14.068;2022-08-19T08:57:19;21.27;;;11.88;;
52318;SDS011;38258;51.148;14.068;2022-08-19T08:59:51;19.65;;;11.35;;
52318;SDS011;38258;51.148;14.068;2022-08-19T09:02:22;18.00;;;11.50;;
52318;SDS011;38258;51.148;14.068;2022-08-19T09:04:49;19.38;;;11.52;;
52318;SDS011;38258;51.148;14.068;2022-08-19T09:07:22;19.17;;;11.32;;
52318;SDS011;38258;51.148;14.068;2022-08-19T09:10:07;18.77;;;9.88;;
52318;SDS011;38258;51.148;14.068;2022-08-19T09:12:46;21.40;;;11.18;;
52318;SDS011;38258;51.148;14.068;2022-08-19T09:15:21;21.80;;;11.65;;
52318;SDS011;38258;51.148;14.068;2022-08-19T09:17:54;19.27;;;11.02;;
52318;SDS011;38258;51.148;14.068;2022-08-19T09:20:27;20.38;;;12.57;;
52318;SDS011;38258;51.148;14.068;2022-08-19T09:22:54;20.35;;;12.38;;
52318;SDS011;38258;51.148;14.068;2022-08-19T09:25:21;20.52;;;12.70;;
52318;SDS011;38258;51.148;14.068;2022-08-19T09:27:49;18.38;;;11.55;;
52318;SDS011;38258;51.148;14.068;2022-08-19T09:30:18;18.23;;;10.35;;
52318;SDS011;38258;51.148;14.068;2022-08-19T09:32:48;17.27;;;10.50;;
52318;SDS011;38258;51.148;14.068;2022-08-19T09:35:18;18.40;;;10.75;;
52318;SDS011;38258;51.148;14.068;2022-08-19T09:37:47;17.85;;;10.73;;
52318;SDS011;38258;51.148;14.068;2022-08-19T09:40:15;15.85;;;10.65;;
52318;SDS011;38258;51.148;14.068;2022-08-19T09:42:42;17.15;;;10.40;;
52318;SDS011;38258;51.148;14.068;2022-08-19T09:45:11;16.75;;;10.88;;
52318;SDS011;38258;51.148;14.068;2022-08-19T09:47:40;16.98;;;10.75;;
52318;SDS011;38258;51.148;14.068;2022-08-19T09:50:07;16.42;;;10.45;;
52318;SDS011;38258;51.148;14.068;2022-08-19T09:52:36;17.60;;;10.73;;
52318;SDS011;38258;51.148;14.068;2022-08-19T09:55:04;17.65;;;9.07;;
52318;SDS011;38258;51.148;14.068;2022-08-19T09:57:32;15.40;;;9.77;;
52318;SDS011;38258;51.148;14.068;2022-08-19T09:59:59;15.50;;;9.98;;
52318;SDS011;38258;51.148;14.068;2022-08-19T10:02:25;16.33;;;10.48;;
52318;SDS011;38258;51.148;14.068;2022-08-19T10:04:54;16.40;;;10.32;;
52318;SDS011;38258;51.148;14.068;2022-08-19T10:07:39;16.95;;;10.35;;
52318;SDS011;38258;51.148;14.068;2022-08-19T10:10:06;15.13;;;9.60;;
52318;SDS011;38258;51.148;14.068;2022-08-19T10:12:34;17.75;;;10.98;;
52318;SDS011;38258;51.148;14.068;2022-08-19T10:15:02;18.50;;;11.30;;
52318;SDS011;38258;51.148;14.068;2022-08-19T10:17:29;16.20;;;10.93;;
52318;SDS011;38258;51.148;14.068;2022-08-19T10:19:59;16.23;;;10.07;;
52318;SDS011;38258;51.148;14.068;2022-08-19T10:22:27;18.42;;;11.10;;
52318;SDS011;38258;51.148;14.068;2022-08-19T10:24:54;17.63;;;11.20;;
52318;SDS011;38258;51.148;14.068;2022-08-19T10:27:21;17.42;;;11.60;;
52318;SDS011;38258;51.148;14.068;2022-08-19T10:29:49;19.30;;;11.93;;
52318;SDS011;38258;51.148;14.068;2022-08-19T10:32:16;16.25;;;9.93;;
52318;SDS011;38258;51.148;14.068;2022-08-19T10:34:43;21.83;;;12.30;;
52318;SDS011;38258;51.148;14.068;2022-08-19T10:37:11;20.75;;;11.75;;
52318;SDS011;38258;51.148;14.068;2022-08-19T10:39:38;21.70;;;12.60;;
52318;SDS011;38258;51.148;14.068;2022-08-19T10:42:05;22.95;;;12.80;;
52318;SDS011;38258;51.148;14.068;2022-08-19T10:44:33;22.60;;;13.15;;
52318;SDS011;38258;51.148;14.068;2022-08-19T10:47:01;22.38;;;12.98;;
52318;SDS011;38258;51.148;14.068;2022-08-19T10:49:27;21.50;;;13.13;;
52318;SDS011;38258;51.148;14.068;2022-08-19T10:51:54;23.10;;;13.63;;
52318;SDS011;38258;51.148;14.068;2022-08-19T10:54:41;20.55;;;12.15;;
52318;SDS011;38258;51.148;14.068;2022-08-19T10:57:25;23.02;;;12.40;;
52318;SDS011;38258;51.148;14.068;2022-08-19T10:59:56;21.67;;;13.73;;
52318;SDS011;38258;51.148;14.068;2022-08-19T11:02:23;21.10;;;11.80;;
52318;SDS011;38258;51.148;14.068;2022-08-19T11:04:50;21.02;;;12.32;;
52318;SDS011;38258;51.148;14.068;2022-08-19T11:07:17;20.48;;;12.20;;
52318;SDS011;38258;51.148;14.068;2022-08-19T11:09:45;20.38;;;12.75;;
52318;SDS011;38258;51.148;14.068;2022-08-19T11:12:12;20.13;;;12.55;;
52318;SDS011;38258;51.148;14.068;2022-08-19T11:14:40;21.73;;;13.65;;
52318;SDS011;38258;51.148;14.068;2022-08-19T11:17:07;21.23;;;12.57;;
52318;SDS011;38258;51.148;14.068;2022-08-19T11:19:34;21.65;;;12.48;;
52318;SDS011;38258;51.148;14.068;2022-08-19T11:22:01;21.05;;;12.75;;
52318;SDS011;38258;51.148;14.068;2022-08-19T11:24:28;22.15;;;13.35;;
52318;SDS011;38258;51.148;14.068;2022-08-19T11:27:01;23.42;;;14.18;;
52318;SDS011;38258;51.148;14.068;2022-08-19T11:29:29;20.40;;;12.30;;
52318;SDS011;38258;51.148;14.068;2022-08-19T11:31:57;21.33;;;12.63;;
52318;SDS011;38258;51.148;14.068;2022-08-19T11:34:25;17.52;;;11.43;;
52318;SDS011;38258;51.148;14.068;2022-08-19T11:36:53;18.95;;;11.55;;
52318;SDS011;38258;51.148;14.068;2022-08-19T11:39:23;19.00;;;11.70;;
52318;SDS011;38258;51.148;14.068;2022-08-19T11:41:51;18.20;;;11.20;;
52318;SDS011;38258;51.148;14.068;2022-08-19T11:44:19;17.88;;;11.40;;
52318;SDS011;38258;51.148;14.068;2022-08-19T11:46:46;18.30;;;11.57;;
52318;SDS011;38258;51.148;14.068;2022-08-19T11:49:13;18.27;;;11.98;;
52318;SDS011;38258;51.148;14.068;2022-08-19T11:51:41;18.27;;;11.52;;
52318;SDS011;38258;51.148;14.068;2022-08-19T11:54:09;19.20;;;11.77;;
52318;SDS011;38258;51.148;14.068;2022-08-19T11:56:38;17.70;;;11.77;;
52318;SDS011;38258;51.148;14.068;2022-08-19T11:59:05;19.10;;;12.38;;
52318;SDS011;38258;51.148;14.068;2022-08-19T12:01:34;20.90;;;13.05;;
52318;SDS011;38258;51.148;14.068;2022-08-19T12:04:01;17.25;;;11.57;;
52318;SDS011;38258;51.148;14.068;2022-08-19T12:06:30;21.33;;;12.75;;
52318;SDS011;38258;51.148;14.068;2022-08-19T12:09:00;20.25;;;12.50;;
52318;SDS011;38258;51.148;14.068;2022-08-19T12:11:29;17.85;;;12.82;;
52318;SDS011;38258;51.148;14.068;2022-08-19T12:13:56;18.10;;;12.25;;
52318;SDS011;38258;51.148;14.068;2022-08-19T12:16:24;19.77;;;11.55;;
52318;SDS011;38258;51.148;14.068;2022-08-19T12:18:54;18.63;;;12.73;;
52318;SDS011;38258;51.148;14.068;2022-08-19T12:21:24;19.15;;;12.85;;
52318;SDS011;38258;51.148;14.068;2022-08-19T12:23:54;18.50;;;11.68;;
52318;SDS011;38258;51.148;14.068;2022-08-19T12:26:22;21.52;;;13.05;;
52318;SDS011;38258;51.148;14.068;2022-08-19T12:28:50;18.83;;;12.20;;
52318;SDS011;38258;51.148;14.068;2022-08-19T12:31:18;18.48;;;11.73;;
52318;SDS011;38258;51.148;14.068;2022-08-19T12:33:46;21.15;;;13.00;;
52318;SDS011;38258;51.148;14.068;2022-08-19T12:36:15;20.65;;;11.85;;
52318;SDS011;38258;51.148;14.068;2022-08-19T12:38:43;18.48;;;12.73;;
52318;SDS011;38258;51.148;14.068;2022-08-19T12:41:11;17.50;;;11.93;;
52318;SDS011;38258;51.148;14.068;2022-08-19T12:43:40;18.80;;;12.07;;
52318;SDS011;38258;51.148;14.068;2022-08-19T12:46:08;21.20;;;12.45;;
52318;SDS011;38258;51.148;14.068;2022-08-19T12:48:36;19.15;;;12.27;;
52318;SDS011;38258;51.148;14.068;2022-08-19T12:51:07;18.75;;;11.40;;
52318;SDS011;38258;51.148;14.068;2022-08-19T12:53:38;18.83;;;11.50;;
52318;SDS011;38258;51.148;14.068;2022-08-19T12:56:06;18.15;;;10.77;;
52318;SDS011;38258;51.148;14.068;2022-08-19T12:58:33;20.05;;;12.73;;
52318;SDS011;38258;51.148;14.068;2022-08-19T13:01:05;19.38;;;10.80;;
52318;SDS011;38258;51.148;14.068;2022-08-19T13:03:32;22.48;;;13.85;;
52318;SDS011;38258;51.148;14.068;2022-08-19T13:05:59;25.73;;;13.13;;
52318;SDS011;38258;51.148;14.068;2022-08-19T13:08:26;22.20;;;12.60;;
52318;SDS011;38258;51.148;14.068;2022-08-19T13:10:54;20.13;;;11.98;;
52318;SDS011;38258;51.148;14.068;2022-08-19T13:13:21;19.27;;;12.15;;
52318;SDS011;38258;51.148;14.068;2022-08-19T13:15:48;19.48;;;12.05;;
52318;SDS011;38258;51.148;14.068;2022-08-19T13:18:14;23.05;;;13.57;;
52318;SDS011;38258;51.148;14.068;2022-08-19T13:20:41;23.77;;;14.07;;
52318;SDS011;38258;51.148;14.068;2022-08-19T13:23:08;22.65;;;12.98;;
52318;SDS011;38258;51.148;14.068;2022-08-19T13:25:35;26.30;;;14.43;;
52318;SDS011;38258;51.148;14.068;2022-08-19T13:28:04;25.95;;;14.02;;
52318;SDS011;38258;51.148;14.068;2022-08-19T13:30:31;28.50;;;14.32;;
52318;SDS011;38258;51.148;14.068;2022-08-19T13:33:15;29.60;;;15.15;;
52318;SDS011;38258;51.148;14.068;2022-08-19T13:35:44;33.03;;;16.80;;
52318;SDS011;38258;51.148;14.068;2022-08-19T13:38:15;28.77;;;14.88;;
52318;SDS011;38258;51.148;14.068;2022-08-19T13:40:43;31.67;;;15.60;;
52318;SDS011;38258;51.148;14.068;2022-08-19T13:43:12;29.65;;;15.50;;
52318;SDS011;38258;51.148;14.068;2022-08-19T13:45:40;30.80;;;15.57;;
52318;SDS011;38258;51.148;14.068;2022-08-19T13:48:07;33.00;;;15.48;;
52318;SDS011;38258;51.148;14.068;2022-08-19T13:50:38;31.73;;;16.30;;
52318;SDS011;38258;51.148;14.068;2022-08-19T13:53:08;28.02;;;15.20;;
52318;SDS011;38258;51.148;14.068;2022-08-19T13:55:36;30.90;;;15.70;;
52318;SDS011;38258;51.148;14.068;2022-08-19T13:58:04;30.02;;;14.80;;
52318;SDS011;38258;51.148;14.068;2022-08-19T14:00:34;29.33;;;15.50;;
52318;SDS011;38258;51.148;14.068;2022-08-19T14:03:02;27.90;;;15.05;;
52318;SDS011;38258;51.148;14.068;2022-08-19T14:05:31;28.75;;;15.13;;
52318;SDS011;38258;51.148;14.068;2022-08-19T14:07:58;28.58;;;15.13;;
52318;SDS011;38258;51.148;14.068;2022-08-19T14:10:26;27.17;;;14.88;;
52318;SDS011;38258;51.148;14.068;2022-08-19T14:12:56;29.42;;;14.80;;
52318;SDS011;38258;51.148;14.068;2022-08-19T14:15:24;27.45;;;13.15;;
52318;SDS011;38258;51.148;14.068;2022-08-19T14:17:53;24.50;;;14.13;;